createdAt,value
2023-01-17T00:00:05.991Z,98391.67
2023-01-17T00:02:32.864Z,98399.35
2023-01-17T00:05:18.489Z,98403.80
2023-01-17T00:08:03.912Z,98398.16
2023-01-17T00:10:30.707Z,98402.19
2023-01-17T00:13:03.763Z,98400.30
2023-01-17T00:15:31.024Z,98401.64
2023-01-17T00:17:58.073Z,98397.70
2023-01-17T00:20:45.716Z,98377.48
2023-01-17T00:23:32.778Z,98380.02
2023-01-17T00:26:05.710Z,98369.76
2023-01-17T00:28:36.877Z,98366.71
2023-01-17T00:31:04.177Z,98375.97
2023-01-17T00:33:31.029Z,98383.40
2023-01-17T00:35:58.354Z,98379.02
2023-01-17T00:38:26.627Z,98365.67
2023-01-17T00:40:53.479Z,98366.89
2023-01-17T00:43:40.524Z,98377.41
2023-01-17T00:46:26.245Z,98364.39
2023-01-17T00:49:11.736Z,98376.89
2023-01-17T00:51:57.305Z,98376.23
2023-01-17T00:54:42.967Z,98368.73
2023-01-17T00:57:28.520Z,98377.67
2023-01-17T01:00:14.161Z,98382.65
2023-01-17T01:02:59.735Z,98367.38
2023-01-17T01:05:45.304Z,98365.71
2023-01-17T01:08:39.219Z,98363.65
2023-01-17T01:11:26.370Z,98351.14
2023-01-17T01:14:11.991Z,98349.27
2023-01-17T01:16:57.568Z,98361.10
2023-01-17T01:19:43.267Z,98341.97
2023-01-17T01:22:28.769Z,98346.02
2023-01-17T01:25:14.386Z,98348.91
2023-01-17T01:27:59.959Z,98355.42
2023-01-17T01:30:45.478Z,98341.58
2023-01-17T01:33:19.217Z,98338.42
2023-01-17T01:35:47.396Z,98339.20
2023-01-17T01:38:14.087Z,98344.98
2023-01-17T01:40:48.977Z,98333.34
2023-01-17T01:43:18.039Z,98339.01
2023-01-17T01:45:47.728Z,98326.91
2023-01-17T01:48:33.647Z,98337.69
2023-01-17T01:51:03.010Z,98315.14
2023-01-17T01:53:29.823Z,98311.09
2023-01-17T01:55:56.487Z,98316.58
2023-01-17T01:58:24.834Z,98323.91
2023-01-17T02:00:51.612Z,98324.84
2023-01-17T02:03:21.983Z,98319.67
2023-01-17T02:05:48.624Z,98304.41
2023-01-17T02:08:16.728Z,98312.55
2023-01-17T02:10:46.936Z,98306.00
2023-01-17T02:13:15.786Z,98303.16
2023-01-17T02:16:07.412Z,98302.27
2023-01-17T02:19:11.023Z,98291.92
2023-01-17T02:21:49.023Z,98290.96
2023-01-17T02:24:37.017Z,98303.21
2023-01-17T02:27:24.040Z,98277.75
2023-01-17T02:30:11.378Z,98278.30
2023-01-17T02:32:40.219Z,98280.44
2023-01-17T02:35:20.496Z,98270.48
2023-01-17T02:38:25.498Z,98267.23
2023-01-17T02:40:57.811Z,98261.21
2023-01-17T02:43:24.556Z,98246.77
2023-01-17T02:45:51.251Z,98252.13
2023-01-17T02:48:19.876Z,98250.31
2023-01-17T02:51:01.887Z,98238.52
2023-01-17T02:53:50.250Z,98240.58
2023-01-17T02:56:34.416Z,98237.51
2023-01-17T02:59:26.169Z,98247.52
2023-01-17T03:01:59.061Z,98235.17
2023-01-17T03:04:44.968Z,98234.65
2023-01-17T03:07:16.387Z,98248.14
2023-01-17T03:09:47.184Z,98234.94
2023-01-17T03:12:13.859Z,98234.73
2023-01-17T03:14:40.559Z,98239.52
2023-01-17T03:17:07.223Z,98243.17
2023-01-17T03:19:33.951Z,98246.73
2023-01-17T03:22:00.646Z,98249.33
2023-01-17T03:24:27.330Z,98233.68
2023-01-17T03:26:54.334Z,98240.80
2023-01-17T03:29:21.026Z,98232.61
2023-01-17T03:31:47.751Z,98226.99
2023-01-17T03:34:14.526Z,98228.11
2023-01-17T03:36:42.253Z,98230.07
2023-01-17T03:39:09.074Z,98218.61
2023-01-17T03:41:35.750Z,98215.70
2023-01-17T03:44:02.546Z,98212.92
2023-01-17T03:46:29.456Z,98211.10
2023-01-17T03:48:56.223Z,98210.69
2023-01-17T03:51:23.046Z,98210.30
2023-01-17T03:53:50.788Z,98206.74
2023-01-17T03:56:17.654Z,98203.34
2023-01-17T03:58:44.302Z,98201.27
2023-01-17T04:01:11.606Z,98210.86
2023-01-17T04:03:38.984Z,98214.04
2023-01-17T04:06:06.448Z,98210.55
2023-01-17T04:08:33.186Z,98193.13
2023-01-17T04:11:00.131Z,98197.02
2023-01-17T04:13:26.824Z,98192.27
2023-01-17T04:15:53.603Z,98196.87
2023-01-17T04:18:21.117Z,98202.09
2023-01-17T04:20:47.811Z,98202.24
2023-01-17T04:23:14.585Z,98200.04
2023-01-17T04:25:41.301Z,98201.39
2023-01-17T04:28:08.140Z,98204.63
2023-01-17T04:30:34.937Z,98206.77
2023-01-17T04:33:01.777Z,98195.77
2023-01-17T04:35:33.394Z,98202.33
2023-01-17T04:38:00.531Z,98202.65
2023-01-17T04:40:27.304Z,98203.76
2023-01-17T04:42:54.441Z,98195.69
2023-01-17T04:45:21.327Z,98190.85
2023-01-17T04:47:48.221Z,98189.98
2023-01-17T04:50:14.948Z,98202.58
2023-01-17T04:52:41.602Z,98198.69
2023-01-17T04:55:08.846Z,98205.73
2023-01-17T04:57:35.621Z,98195.77
2023-01-17T05:00:02.524Z,98184.35
2023-01-17T05:02:29.292Z,98188.80
2023-01-17T05:04:56.110Z,98188.00
2023-01-17T05:07:22.812Z,98199.73
2023-01-17T05:09:49.556Z,98184.83
2023-01-17T05:12:16.295Z,98196.95
2023-01-17T05:14:42.983Z,98181.50
2023-01-17T05:17:11.362Z,98174.45
2023-01-17T05:19:38.238Z,98171.45
2023-01-17T05:22:15.372Z,98189.59
2023-01-17T05:24:43.259Z,98194.25
2023-01-17T05:27:10.672Z,98181.02
2023-01-17T05:29:37.447Z,98175.17
2023-01-17T05:32:04.879Z,98184.04
2023-01-17T05:34:31.779Z,98186.73
2023-01-17T05:36:58.741Z,98180.56
2023-01-17T05:39:26.487Z,98187.84
2023-01-17T05:41:53.490Z,98180.86
2023-01-17T05:44:20.267Z,98173.09
2023-01-17T05:46:46.976Z,98178.58
2023-01-17T05:49:13.708Z,98174.84
2023-01-17T05:51:40.479Z,98183.48
2023-01-17T05:54:07.194Z,98182.69
2023-01-17T05:56:34.182Z,98179.76
2023-01-17T05:59:01.119Z,98183.88
2023-01-17T06:01:27.865Z,98185.55
2023-01-17T06:03:54.643Z,98181.04
2023-01-17T06:06:21.551Z,98181.81
2023-01-17T06:08:48.289Z,98186.81
2023-01-17T06:11:15.037Z,98203.13
2023-01-17T06:13:41.747Z,98202.27
2023-01-17T06:16:08.645Z,98218.02
2023-01-17T06:18:35.660Z,98206.85
2023-01-17T06:21:02.439Z,98204.55
2023-01-17T06:23:29.131Z,98211.92
2023-01-17T06:25:55.826Z,98209.23
2023-01-17T06:28:23.239Z,98211.05
2023-01-17T06:30:50.293Z,98216.20
2023-01-17T06:33:17.049Z,98206.94
2023-01-17T06:35:50.506Z,98201.00
2023-01-17T06:38:17.326Z,98211.13
2023-01-17T06:40:44.055Z,98203.28
2023-01-17T06:43:10.806Z,98205.11
2023-01-17T06:45:37.505Z,98215.34
2023-01-17T06:48:05.396Z,98205.35
2023-01-17T06:50:32.946Z,98212.88
2023-01-17T06:53:04.571Z,98223.65
2023-01-17T06:55:33.774Z,98212.48
2023-01-17T06:58:02.798Z,98220.80
2023-01-17T07:00:30.985Z,98226.02
2023-01-17T07:02:58.157Z,98224.52
2023-01-17T07:05:25.037Z,98205.19
2023-01-17T07:07:51.964Z,98197.66
2023-01-17T07:10:18.836Z,98205.58
2023-01-17T07:12:45.652Z,98207.02
2023-01-17T07:15:12.739Z,98205.20
2023-01-17T07:17:39.612Z,98207.65
2023-01-17T07:20:07.084Z,98214.13
2023-01-17T07:22:33.992Z,98206.36
2023-01-17T07:25:00.764Z,98213.11
2023-01-17T07:27:30.460Z,98210.89
2023-01-17T07:29:57.734Z,98201.63
2023-01-17T07:32:26.804Z,98207.16
2023-01-17T07:34:54.529Z,98208.66
2023-01-17T07:37:21.317Z,98201.23
2023-01-17T07:39:48.141Z,98212.55
2023-01-17T07:42:15.159Z,98195.92
2023-01-17T07:44:44.108Z,98194.10
2023-01-17T07:47:11.584Z,98199.73
2023-01-17T07:49:38.281Z,98192.77
2023-01-17T07:52:08.193Z,98197.27
2023-01-17T07:54:34.898Z,98197.65
2023-01-17T07:57:01.869Z,98199.17
2023-01-17T07:59:28.699Z,98192.05
2023-01-17T08:01:55.518Z,98192.02
2023-01-17T08:04:25.861Z,98184.43
2023-01-17T08:06:55.177Z,98184.52
2023-01-17T08:09:22.076Z,98197.66
2023-01-17T08:11:48.871Z,98203.68
2023-01-17T08:14:15.613Z,98189.89
2023-01-17T08:16:42.360Z,98189.48
2023-01-17T08:19:10.261Z,98188.23
2023-01-17T08:21:36.955Z,98184.18
2023-01-17T08:24:04.045Z,98184.42
2023-01-17T08:26:30.839Z,98191.95
2023-01-17T08:29:00.666Z,98182.92
2023-01-17T08:31:28.774Z,98172.92
2023-01-17T08:33:56.701Z,98179.73
2023-01-17T08:36:25.829Z,98185.84
2023-01-17T08:38:53.319Z,98168.95
2023-01-17T08:41:21.024Z,98158.89
2023-01-17T08:43:48.611Z,98156.89
2023-01-17T08:46:15.321Z,98165.30
2023-01-17T08:48:42.009Z,98170.21
2023-01-17T08:51:08.814Z,98155.53
2023-01-17T08:53:35.497Z,98147.83
2023-01-17T08:56:03.355Z,98145.54
2023-01-17T08:58:30.854Z,98142.75
2023-01-17T09:01:03.015Z,98141.48
2023-01-17T09:03:31.025Z,98130.98
2023-01-17T09:06:05.724Z,98132.89
2023-01-17T09:08:33.045Z,98145.67
2023-01-17T09:11:06.791Z,98124.40
2023-01-17T09:13:33.531Z,98110.27
2023-01-17T09:16:00.424Z,98112.64
2023-01-17T09:18:27.320Z,98112.15
2023-01-17T09:20:55.269Z,98105.65
2023-01-17T09:23:22.846Z,98101.60
2023-01-17T09:25:56.738Z,98109.77
2023-01-17T09:28:24.286Z,98098.98
2023-01-17T09:30:51.029Z,98095.55
2023-01-17T09:33:17.873Z,98082.59
2023-01-17T09:35:45.410Z,98083.93
2023-01-17T09:38:12.401Z,98085.59
2023-01-17T09:40:43.959Z,98073.02
2023-01-17T09:43:20.484Z,98078.25
2023-01-17T09:45:47.204Z,98068.31
2023-01-17T09:48:17.858Z,98067.49
2023-01-17T09:50:48.185Z,98064.70
2023-01-17T09:53:20.955Z,98064.59
2023-01-17T09:55:58.145Z,98071.66
2023-01-17T09:58:41.919Z,98064.27
2023-01-17T10:01:17.464Z,98062.75
2023-01-17T10:03:53.429Z,98058.31
2023-01-17T10:06:38.100Z,98054.66
2023-01-17T10:09:43.003Z,98059.36
2023-01-17T10:12:12.687Z,98051.95
2023-01-17T10:15:03.176Z,98066.26
2023-01-17T10:17:36.366Z,98065.55
2023-01-17T10:20:09.439Z,98063.64
2023-01-17T10:22:57.828Z,98065.30
2023-01-17T10:25:43.096Z,98074.27
2023-01-17T10:28:18.763Z,98055.95
2023-01-17T10:30:50.528Z,98053.95
2023-01-17T10:33:22.515Z,98060.00
2023-01-17T10:35:55.362Z,98063.59
2023-01-17T10:38:24.215Z,98057.83
2023-01-17T10:41:03.032Z,98059.88
2023-01-17T10:43:42.054Z,98048.11
2023-01-17T10:46:14.620Z,98044.75
2023-01-17T10:48:43.920Z,98035.72
2023-01-17T10:51:28.985Z,98033.25
2023-01-17T10:54:12.191Z,98021.55
2023-01-17T10:56:40.754Z,98020.38
2023-01-17T10:59:26.022Z,98010.28
2023-01-17T11:01:52.806Z,98010.74
2023-01-17T11:04:23.245Z,98010.91
2023-01-17T11:07:10.369Z,98001.45
2023-01-17T11:09:54.237Z,98008.94
2023-01-17T11:12:43.328Z,98005.28
2023-01-17T11:15:10.007Z,98002.25
2023-01-17T11:17:38.037Z,97999.77
2023-01-17T11:20:29.799Z,98004.37
2023-01-17T11:23:29.590Z,98000.42
2023-01-17T11:25:58.308Z,97994.45
2023-01-17T11:28:32.861Z,97998.88
2023-01-17T11:31:01.364Z,97991.13
2023-01-17T11:33:35.969Z,97977.77
2023-01-17T11:36:02.664Z,97983.15
2023-01-17T11:38:29.363Z,97984.23
2023-01-17T11:41:16.076Z,97981.05
2023-01-17T11:43:53.289Z,97977.82
2023-01-17T11:46:23.925Z,97983.98
2023-01-17T11:48:51.744Z,97973.27
2023-01-17T11:51:25.543Z,97964.45
2023-01-17T11:53:53.210Z,97969.09
2023-01-17T11:56:33.676Z,97984.52
2023-01-17T11:59:28.827Z,97956.40
2023-01-17T12:02:40.203Z,97957.89
2023-01-17T12:05:28.270Z,97959.90
2023-01-17T12:08:20.125Z,97961.88
2023-01-17T12:10:52.888Z,97964.77
2023-01-17T12:14:00.676Z,97964.27
2023-01-17T12:16:52.060Z,97974.33
2023-01-17T12:19:34.138Z,97959.39
2023-01-17T12:22:20.692Z,97966.20
2023-01-17T12:25:00.099Z,97962.65
2023-01-17T12:28:03.372Z,97955.20
2023-01-17T12:30:36.229Z,97965.22
2023-01-17T12:33:34.528Z,97963.95
2023-01-17T12:36:47.854Z,97974.63
2023-01-17T12:39:15.179Z,97969.64
2023-01-17T12:42:13.672Z,97983.76
2023-01-17T12:44:52.656Z,97977.47
2023-01-17T12:47:20.166Z,97984.60
2023-01-17T12:50:04.443Z,97982.61
2023-01-17T12:52:44.512Z,97981.58
2023-01-17T12:55:17.860Z,97975.36
2023-01-17T12:57:46.479Z,97972.70
2023-01-17T13:00:18.052Z,97979.95
2023-01-17T13:03:12.053Z,97972.55
2023-01-17T13:05:41.965Z,97969.73
2023-01-17T13:08:34.548Z,97975.20
2023-01-17T13:11:18.770Z,97966.21
2023-01-17T13:13:47.361Z,97976.45
2023-01-17T13:16:24.232Z,97967.48
2023-01-17T13:18:51.193Z,97965.52
2023-01-17T13:21:31.336Z,97960.46
2023-01-17T13:24:02.541Z,97957.77
2023-01-17T13:26:56.369Z,97963.93
2023-01-17T13:29:59.947Z,97948.21
2023-01-17T13:32:33.025Z,97940.20
2023-01-17T13:35:44.717Z,97944.82
2023-01-17T13:38:30.399Z,97937.67
2023-01-17T13:41:01.424Z,97940.56
2023-01-17T13:43:36.109Z,97946.23
2023-01-17T13:46:06.704Z,97944.20
2023-01-17T13:48:37.242Z,97944.37
2023-01-17T13:51:10.725Z,97947.98
2023-01-17T13:53:40.584Z,97939.52
2023-01-17T13:56:19.909Z,97932.42
2023-01-17T13:58:57.675Z,97931.70
2023-01-17T14:01:24.617Z,97924.93
2023-01-17T14:03:54.379Z,97926.60
2023-01-17T14:06:33.195Z,97924.42
2023-01-17T14:09:18.475Z,97923.77
2023-01-17T14:12:07.146Z,97925.49
2023-01-17T14:14:40.198Z,97923.60
2023-01-17T14:17:16.281Z,97928.69
2023-01-17T14:19:46.333Z,97926.98
2023-01-17T14:22:20.694Z,97932.39
2023-01-17T14:24:56.801Z,97936.28
2023-01-17T14:27:24.403Z,97945.42
2023-01-17T14:30:01.820Z,97946.48
2023-01-17T14:32:37.719Z,97945.59
2023-01-17T14:35:05.192Z,97940.37
2023-01-17T14:37:32.029Z,97935.44
2023-01-17T14:39:59.556Z,97939.52
2023-01-17T14:42:28.089Z,97931.48
2023-01-17T14:45:03.951Z,97930.98
2023-01-17T14:47:32.627Z,97928.35
2023-01-17T14:50:30.389Z,97928.35
2023-01-17T14:53:12.745Z,97919.91
2023-01-17T14:55:50.672Z,97915.93
2023-01-17T14:58:34.367Z,97924.95
2023-01-17T15:01:05.878Z,97924.08
2023-01-17T15:03:35.538Z,97938.13
2023-01-17T15:06:11.278Z,97939.20
2023-01-17T15:08:37.971Z,97946.66
2023-01-17T15:11:09.618Z,97947.02
2023-01-17T15:13:44.643Z,97948.52
2023-01-17T15:16:24.208Z,97949.48
2023-01-17T15:18:51.875Z,97938.77
2023-01-17T15:21:20.517Z,97940.19
2023-01-17T15:23:49.428Z,97944.95
2023-01-17T15:26:17.603Z,97937.25
2023-01-17T15:28:44.965Z,97939.93
2023-01-17T15:31:17.145Z,97931.86
2023-01-17T15:33:46.727Z,97926.58
2023-01-17T15:36:32.463Z,97920.83
2023-01-17T15:39:13.484Z,97917.80
2023-01-17T15:41:40.718Z,97929.52
2023-01-17T15:44:07.412Z,97928.11
2023-01-17T15:46:40.394Z,97935.85
2023-01-17T15:49:24.023Z,97938.37
2023-01-17T15:51:52.143Z,97942.82
2023-01-17T15:54:28.528Z,97936.59
2023-01-17T15:57:06.506Z,97942.41
2023-01-17T15:59:44.014Z,97939.42
2023-01-17T16:02:26.130Z,97938.41
2023-01-17T16:04:53.871Z,97947.11
2023-01-17T16:07:30.881Z,97953.74
2023-01-17T16:10:08.142Z,97953.95
2023-01-17T16:12:34.837Z,97950.94
2023-01-17T16:15:12.294Z,97957.64
2023-01-17T16:17:41.177Z,97960.00
2023-01-17T16:20:19.776Z,97966.36
2023-01-17T16:22:47.023Z,97971.41
2023-01-17T16:25:15.637Z,97977.46
2023-01-17T16:27:43.281Z,97976.14
2023-01-17T16:30:17.951Z,97975.77
2023-01-17T16:32:48.456Z,97970.44
2023-01-17T16:35:22.756Z,97964.41
2023-01-17T16:37:50.450Z,97975.66
2023-01-17T16:40:18.831Z,97975.91
2023-01-17T16:42:45.732Z,97974.16
2023-01-17T16:45:12.922Z,97979.96
2023-01-17T16:47:41.073Z,97985.20
2023-01-17T16:50:09.493Z,97985.52
2023-01-17T16:52:36.201Z,97982.23
2023-01-17T16:55:06.997Z,97989.48
2023-01-17T16:57:33.689Z,97990.03
2023-01-17T17:00:00.595Z,97998.95
2023-01-17T17:02:27.337Z,97990.27
2023-01-17T17:04:54.098Z,97986.52
2023-01-17T17:07:20.779Z,97983.25
2023-01-17T17:09:47.691Z,97995.19
2023-01-17T17:12:14.388Z,98004.88
2023-01-17T17:14:41.388Z,98010.09
2023-01-17T17:17:08.296Z,98005.16
2023-01-17T17:19:35.194Z,98008.38
2023-01-17T17:22:02.188Z,98016.34
2023-01-17T17:24:29.013Z,98013.67
2023-01-17T17:26:56.197Z,98016.50
2023-01-17T17:29:22.978Z,98017.27
2023-01-17T17:31:49.789Z,98021.19
2023-01-17T17:34:16.628Z,98024.02
2023-01-17T17:36:43.406Z,98024.45
2023-01-17T17:39:12.568Z,98024.27
2023-01-17T17:41:41.822Z,98026.67
2023-01-17T17:44:08.616Z,98025.88
2023-01-17T17:46:39.200Z,98023.95
2023-01-17T17:49:06.881Z,98023.15
2023-01-17T17:51:35.356Z,98031.34
2023-01-17T17:54:04.011Z,98032.64
2023-01-17T17:56:31.228Z,98028.16
2023-01-17T17:58:58.646Z,98034.26
2023-01-17T18:01:25.641Z,98040.37
2023-01-17T18:03:53.391Z,98038.60
2023-01-17T18:06:20.560Z,98039.30
2023-01-17T18:08:47.396Z,98046.55
2023-01-17T18:11:18.430Z,98046.82
2023-01-17T18:13:47.824Z,98040.13
2023-01-17T18:16:15.947Z,98038.80
2023-01-17T18:18:48.890Z,98044.16
2023-01-17T18:21:17.812Z,98049.80
2023-01-17T18:23:44.894Z,98047.52
2023-01-17T18:26:34.604Z,98058.15
2023-01-17T18:29:02.056Z,98069.98
2023-01-17T18:31:29.772Z,98071.39
2023-01-17T18:34:01.086Z,98067.93
2023-01-17T18:36:28.996Z,98070.41
2023-01-17T18:38:55.996Z,98073.29
2023-01-17T18:41:28.063Z,98074.77
2023-01-17T18:43:57.899Z,98084.67
2023-01-17T18:46:28.568Z,98083.39
2023-01-17T18:48:56.854Z,98085.77
2023-01-17T18:51:23.683Z,98090.90
2023-01-17T18:53:50.432Z,98091.55
2023-01-17T18:56:21.175Z,98085.02
2023-01-17T18:58:48.875Z,98094.73
2023-01-17T19:01:20.718Z,98098.25
2023-01-17T19:03:48.693Z,98099.98
2023-01-17T19:06:17.878Z,98101.18
2023-01-17T19:08:45.188Z,98106.17
2023-01-17T19:11:12.511Z,98104.47
2023-01-17T19:13:39.429Z,98112.92
2023-01-17T19:16:08.621Z,98112.69
2023-01-17T19:18:35.708Z,98122.70
2023-01-17T19:21:10.708Z,98126.64
2023-01-17T19:23:37.728Z,98132.91
2023-01-17T19:26:05.052Z,98137.10
2023-01-17T19:28:33.185Z,98141.17
2023-01-17T19:31:03.038Z,98132.85
2023-01-17T19:33:29.713Z,98128.27
2023-01-17T19:36:04.163Z,98138.95
2023-01-17T19:38:30.860Z,98139.14
2023-01-17T19:40:57.676Z,98139.55
2023-01-17T19:43:24.339Z,98137.33
2023-01-17T19:45:58.602Z,98137.16
2023-01-17T19:48:26.085Z,98138.77
2023-01-17T19:50:54.693Z,98139.23
2023-01-17T19:53:22.720Z,98127.98
2023-01-17T19:55:49.482Z,98121.04
2023-01-17T19:58:16.218Z,98124.62
2023-01-17T20:00:46.650Z,98131.29
2023-01-17T20:03:13.784Z,98130.08
2023-01-17T20:05:40.506Z,98127.79
2023-01-17T20:08:07.138Z,98130.49
2023-01-17T20:10:34.067Z,98137.27
2023-01-17T20:13:00.951Z,98132.89
2023-01-17T20:15:27.985Z,98129.30
2023-01-17T20:17:55.052Z,98124.73
2023-01-17T20:20:22.933Z,98127.10
2023-01-17T20:22:49.706Z,98134.41
2023-01-17T20:25:16.508Z,98140.24
2023-01-17T20:27:44.440Z,98144.98
2023-01-17T20:30:20.027Z,98146.95
2023-01-17T20:32:47.974Z,98148.27
2023-01-17T20:35:15.549Z,98153.54
2023-01-17T20:37:42.389Z,98151.41
2023-01-17T20:40:10.122Z,98142.73
2023-01-17T20:42:37.082Z,98138.19
2023-01-17T20:45:04.466Z,98139.01
2023-01-17T20:47:31.395Z,98150.57
2023-01-17T20:49:59.020Z,98155.52
2023-01-17T20:52:25.674Z,98151.15
2023-01-17T20:54:52.403Z,98159.26
2023-01-17T20:57:19.152Z,98161.25
2023-01-17T20:59:45.806Z,98169.42
2023-01-17T21:02:12.691Z,98175.30
2023-01-17T21:04:39.498Z,98179.48
2023-01-17T21:07:06.176Z,98180.54
2023-01-17T21:09:32.834Z,98185.48
2023-01-17T21:12:01.323Z,98181.80
2023-01-17T21:14:31.332Z,98180.66
2023-01-17T21:16:58.091Z,98176.52
2023-01-17T21:19:24.778Z,98179.66
2023-01-17T21:21:51.632Z,98173.42
2023-01-17T21:24:19.595Z,98178.88
2023-01-17T21:26:46.429Z,98175.36
2023-01-17T21:29:13.467Z,98163.23
2023-01-17T21:31:40.973Z,98167.75
2023-01-17T21:34:08.990Z,98170.96
2023-01-17T21:36:39.578Z,98163.83
2023-01-17T21:39:09.820Z,98155.59
2023-01-17T21:41:39.407Z,98155.45
2023-01-17T21:44:08.547Z,98155.95
2023-01-17T21:46:38.765Z,98151.55
2023-01-17T21:49:05.965Z,98153.34
2023-01-17T21:51:52.307Z,98151.89
2023-01-17T21:54:47.213Z,98151.79
2023-01-17T21:57:36.561Z,98156.90
2023-01-17T22:00:08.257Z,98160.77
2023-01-17T22:02:44.050Z,98162.77
2023-01-17T22:05:10.790Z,98154.70
2023-01-17T22:07:38.996Z,98155.13
2023-01-17T22:10:06.626Z,98154.04
2023-01-17T22:12:33.297Z,98155.29
2023-01-17T22:14:59.996Z,98157.86
2023-01-17T22:17:26.673Z,98157.59
2023-01-17T22:19:53.350Z,98157.73
2023-01-17T22:22:20.044Z,98160.86
2023-01-17T22:24:46.870Z,98159.45
2023-01-17T22:27:13.723Z,98156.34
2023-01-17T22:29:40.504Z,98159.34
2023-01-17T22:32:08.191Z,98157.39
2023-01-17T22:34:34.857Z,98160.80
2023-01-17T22:37:03.948Z,98155.27
2023-01-17T22:39:30.651Z,98155.35
2023-01-17T22:41:57.391Z,98151.20
2023-01-17T22:44:24.124Z,98151.89
2023-01-17T22:46:50.768Z,98156.94
2023-01-17T22:49:18.586Z,98151.60
2023-01-17T22:51:45.279Z,98144.29
2023-01-17T22:54:12.185Z,98145.94
2023-01-17T22:56:38.917Z,98146.97
2023-01-17T22:59:11.363Z,98145.85
2023-01-17T23:01:42.019Z,98149.40
2023-01-17T23:04:11.805Z,98144.49
2023-01-17T23:06:39.108Z,98142.54
2023-01-17T23:09:07.644Z,98141.98
2023-01-17T23:11:43.746Z,98146.33
2023-01-17T23:14:16.024Z,98156.42
2023-01-17T23:17:07.975Z,98155.64
2023-01-17T23:19:36.247Z,98160.42
2023-01-17T23:22:16.502Z,98159.84
2023-01-17T23:24:56.118Z,98151.80
2023-01-17T23:27:41.872Z,98148.77
2023-01-17T23:30:16.953Z,98154.45
2023-01-17T23:32:45.731Z,98165.69
2023-01-17T23:35:12.456Z,98171.70
2023-01-17T23:37:57.879Z,98171.64
2023-01-17T23:40:24.605Z,98175.58
2023-01-17T23:43:09.951Z,98178.10
2023-01-17T23:45:37.444Z,98173.39
2023-01-17T23:48:05.657Z,98179.32
2023-01-17T23:50:32.979Z,98185.50
2023-01-17T23:53:00.099Z,98183.26
2023-01-17T23:55:27.450Z,98192.56
2023-01-17T23:57:54.960Z,98202.96
